Time;durP1;ratioP1;P1;durP2;ratioP2;P2;SDS_P1;SDS_P2;PMS_P1;PMS_P2;Temp;Humidity;BMP_temperature;BMP_pressure;BME280_temperature;BME280_humidity;BME280_pressure;Samples;Min_cycle;Max_cycle;Signal;HPM_P1;HPM_P2
2022/10/31 00:01:26;;;;;;;;;;;12.90;99.90;;;;;;5043000;28;19932;-72
2022/10/31 00:03:52;;;;;;;;;;;13.00;99.90;;;;;;5043492;28;19925;-71
2022/10/31 00:06:19;;;;;;;;;;;13.00;99.90;;;;;;5045949;28;19924;-72
2022/10/31 00:08:47;;;;;;;;;;;12.80;99.90;;;;;;5042991;28;20678;-70
2022/10/31 00:11:14;;;;;;;;;;;12.80;99.90;;;;;;5043289;28;19933;-70
2022/10/31 00:13:41;;;;;;;;;;;12.70;99.90;;;;;;5042163;28;19925;-70
2022/10/31 00:16:13;;;;;;;;;;;12.70;99.90;;;;;;5047193;28;20019;-72
2022/10/31 00:18:40;;;;;;;;;;;12.60;99.90;;;;;;5042886;28;19928;-70
2022/10/31 00:21:07;;;;;;;;;;;12.60;99.90;;;;;;5044333;28;19929;-70
2022/10/31 00:23:33;;;;;;;;;;;12.50;99.90;;;;;;5041162;28;20011;-72
2022/10/31 00:26:02;;;;;;;;;;;12.50;99.90;;;;;;5042695;28;19933;-72
2022/10/31 00:28:30;;;;;;;;;;;12.50;99.90;;;;;;5042098;28;19925;-73
2022/10/31 00:30:59;;;;;;;;;;;12.40;99.90;;;;;;5045531;28;19932;-71
2022/10/31 00:33:25;;;;;;;;;;;12.40;99.90;;;;;;5042576;28;20012;-71
2022/10/31 00:35:52;;;;;;;;;;;12.30;99.90;;;;;;5043695;28;19935;-71
2022/10/31 00:38:19;;;;;;;;;;;12.20;99.90;;;;;;5042817;28;19924;-71
2022/10/31 00:40:45;;;;;;;;;;;12.10;99.90;;;;;;5043321;28;20031;-71
2022/10/31 00:43:13;;;;;;;;;;;12.10;99.90;;;;;;5040826;28;20034;-71
2022/10/31 00:45:40;;;;;;;;;;;12.00;99.90;;;;;;5045835;28;19935;-73
2022/10/31 00:48:07;;;;;;;;;;;11.90;99.90;;;;;;5052040;28;19932;-72
2022/10/31 00:50:36;;;;;;;;;;;12.00;99.90;;;;;;5044021;28;19924;-72
2022/10/31 00:53:03;;;;;;;;;;;11.90;99.90;;;;;;5056865;28;19940;-71
2022/10/31 00:55:29;;;;;;;;;;;11.90;99.90;;;;;;5060680;28;19931;-71
2022/10/31 00:57:56;;;;;;;;;;;11.90;99.90;;;;;;5049120;28;19931;-71
2022/10/31 01:00:24;;;;;;;;;;;11.90;99.90;;;;;;5038787;28;20033;-71
2022/10/31 01:02:51;;;;;;;;;;;11.80;99.90;;;;;;5043567;28;20342;-71
2022/10/31 01:05:17;;;;;;;;;;;11.70;99.90;;;;;;5037060;28;20019;-71
2022/10/31 01:07:44;;;;;;;;;;;11.70;99.90;;;;;;5040453;28;19925;-70
2022/10/31 01:10:11;;;;;;;;;;;11.50;99.90;;;;;;5047399;28;19932;-71
2022/10/31 01:12:38;;;;;;;;;;;11.50;99.90;;;;;;5046060;28;19925;-70
2022/10/31 01:15:05;;;;;;;;;;;11.40;99.90;;;;;;5040177;28;19931;-71
2022/10/31 01:17:33;;;;;;;;;;;11.40;99.90;;;;;;5039535;28;19929;-71
2022/10/31 01:20:00;;;;;;;;;;;11.40;99.90;;;;;;5041038;28;19931;-70
2022/10/31 01:22:26;;;;;;;;;;;11.40;99.90;;;;;;5038561;28;19940;-70
2022/10/31 01:24:53;;;;;;;;;;;11.40;99.90;;;;;;5042814;28;19933;-70
2022/10/31 01:27:20;;;;;;;;;;;11.30;99.90;;;;;;5040292;28;19936;-70
2022/10/31 01:29:46;;;;;;;;;;;11.30;99.90;;;;;;5041030;28;19925;-70
2022/10/31 01:32:13;;;;;;;;;;;11.30;99.90;;;;;;5040683;28;20291;-70
2022/10/31 01:34:41;;;;;;;;;;;11.20;99.90;;;;;;5041450;28;19935;-70
2022/10/31 01:37:07;;;;;;;;;;;11.10;99.90;;;;;;5046365;28;19925;-70
2022/10/31 01:39:34;;;;;;;;;;;11.20;99.90;;;;;;5044813;28;19960;-70
2022/10/31 01:42:01;;;;;;;;;;;11.10;99.90;;;;;;5045748;28;20009;-70
2022/10/31 01:44:46;;;;;;;;;;;11.00;99.90;;;;;;5045767;28;20291;-70
2022/10/31 01:47:15;;;;;;;;;;;10.90;99.90;;;;;;5047808;28;19924;-70
2022/10/31 01:49:45;;;;;;;;;;;10.90;99.90;;;;;;5044115;28;19925;-70
2022/10/31 01:52:14;;;;;;;;;;;10.80;99.90;;;;;;5045065;28;19937;-70
2022/10/31 01:54:43;;;;;;;;;;;10.70;99.90;;;;;;5043874;28;20379;-71
2022/10/31 01:57:12;;;;;;;;;;;10.70;99.90;;;;;;5045043;28;19932;-71
2022/10/31 01:59:41;;;;;;;;;;;10.70;99.90;;;;;;5042337;28;19932;-70
2022/10/31 02:02:07;;;;;;;;;;;10.60;99.90;;;;;;5046952;28;19928;-71
2022/10/31 02:04:34;;;;;;;;;;;10.60;99.90;;;;;;5046285;28;19924;-71
2022/10/31 02:07:04;;;;;;;;;;;10.60;99.90;;;;;;5050127;28;19925;-70
2022/10/31 02:09:31;;;;;;;;;;;10.60;99.90;;;;;;5047600;28;19943;-70
2022/10/31 02:11:59;;;;;;;;;;;10.60;99.90;;;;;;5046947;28;19925;-70
2022/10/31 02:14:27;;;;;;;;;;;10.60;99.90;;;;;;5049728;28;19925;-70
2022/10/31 02:16:54;;;;;;;;;;;10.50;99.90;;;;;;5044172;28;19929;-70
2022/10/31 02:19:24;;;;;;;;;;;10.50;99.90;;;;;;5045348;28;19939;-71
2022/10/31 02:21:53;;;;;;;;;;;10.50;99.90;;;;;;5043859;28;19925;-70
2022/10/31 02:24:38;;;;;;;;;;;10.40;99.90;;;;;;5047116;28;19925;-70
2022/10/31 02:27:25;;;;;;;;;;;10.40;99.90;;;;;;5047021;28;20358;-70
2022/10/31 02:30:02;;;;;;;;;;;10.30;99.90;;;;;;5035017;28;20392;-70
2022/10/31 02:32:34;;;;;;;;;;;10.30;99.90;;;;;;5047757;28;20393;-71
2022/10/31 02:35:05;;;;;;;;;;;10.20;99.90;;;;;;5045648;28;20940;-70
2022/10/31 02:37:35;;;;;;;;;;;10.20;99.90;;;;;;5048954;28;19932;-71
2022/10/31 02:40:06;;;;;;;;;;;10.20;99.90;;;;;;5042510;28;20426;-71
2022/10/31 02:42:34;;;;;;;;;;;10.20;99.90;;;;;;5045324;28;19932;-71
2022/10/31 02:45:03;;;;;;;;;;;10.20;99.90;;;;;;5044054;28;19931;-70
2022/10/31 02:47:34;;;;;;;;;;;10.20;99.90;;;;;;5048037;28;20020;-70
2022/10/31 02:50:03;;;;;;;;;;;10.20;99.90;;;;;;5038898;28;19947;-70
2022/10/31 02:52:31;;;;;;;;;;;10.20;99.90;;;;;;5043879;28;19929;-71
2022/10/31 02:54:57;;;;;;;;;;;10.20;99.90;;;;;;5048622;28;19931;-70
2022/10/31 02:57:25;;;;;;;;;;;10.20;99.90;;;;;;5045039;28;20372;-70
2022/10/31 02:59:54;;;;;;;;;;;10.10;99.90;;;;;;5046535;28;19939;-71
2022/10/31 03:02:29;;;;;;;;;;;10.10;99.90;;;;;;5043940;28;19925;-71
2022/10/31 03:05:12;;;;;;;;;;;10.00;99.90;;;;;;5046408;28;19947;-70
2022/10/31 03:07:42;;;;;;;;;;;9.90;99.90;;;;;;5041308;28;19933;-70
2022/10/31 03:10:14;;;;;;;;;;;9.80;99.90;;;;;;5046548;28;19925;-70
2022/10/31 03:12:43;;;;;;;;;;;9.80;99.90;;;;;;5044148;28;19931;-70
2022/10/31 03:15:15;;;;;;;;;;;9.80;99.90;;;;;;5043376;28;19933;-70
2022/10/31 03:17:46;;;;;;;;;;;9.80;99.90;;;;;;5041296;28;19925;-71
2022/10/31 03:20:16;;;;;;;;;;;9.80;99.90;;;;;;5042743;28;20518;-70
2022/10/31 03:22:43;;;;;;;;;;;9.80;99.90;;;;;;5040240;28;20570;-71
2022/10/31 03:25:10;;;;;;;;;;;9.70;99.90;;;;;;5047145;28;19925;-71
2022/10/31 03:27:38;;;;;;;;;;;9.80;99.90;;;;;;5041863;28;20026;-70
2022/10/31 03:30:07;;;;;;;;;;;9.80;99.90;;;;;;5047479;28;19931;-70
2022/10/31 03:32:36;;;;;;;;;;;9.90;99.90;;;;;;5046402;28;20023;-71
2022/10/31 03:35:05;;;;;;;;;;;10.00;99.90;;;;;;5043752;28;20044;-70
2022/10/31 03:37:33;;;;;;;;;;;10.00;99.90;;;;;;5035120;28;20376;-71
2022/10/31 03:40:01;;;;;;;;;;;9.90;99.90;;;;;;5044580;28;20175;-71
2022/10/31 03:42:29;;;;;;;;;;;9.80;99.90;;;;;;5042746;28;19925;-71
2022/10/31 03:44:58;;;;;;;;;;;9.70;99.90;;;;;;5058144;28;19924;-71
2022/10/31 03:47:25;;;;;;;;;;;9.70;99.90;;;;;;5047936;28;20011;-71
2022/10/31 03:49:52;;;;;;;;;;;9.70;99.90;;;;;;5045733;28;19935;-70
2022/10/31 03:52:24;;;;;;;;;;;9.80;99.90;;;;;;5043081;28;19925;-70
2022/10/31 03:54:54;;;;;;;;;;;9.80;99.90;;;;;;5049028;28;20352;-70
2022/10/31 03:57:24;;;;;;;;;;;9.70;99.90;;;;;;5044381;28;19929;-70
2022/10/31 03:59:54;;;;;;;;;;;9.70;99.90;;;;;;5042802;28;19933;-71
2022/10/31 04:02:23;;;;;;;;;;;9.70;99.90;;;;;;5044752;28;19929;-70
2022/10/31 04:04:50;;;;;;;;;;;9.70;99.90;;;;;;5045650;28;19925;-71
2022/10/31 04:07:17;;;;;;;;;;;9.70;99.90;;;;;;5048125;28;19931;-71
2022/10/31 04:09:47;;;;;;;;;;;9.70;99.90;;;;;;5046884;28;19929;-71
2022/10/31 04:12:16;;;;;;;;;;;9.70;99.90;;;;;;5042935;28;19925;-71
2022/10/31 04:14:45;;;;;;;;;;;9.70;99.90;;;;;;5042881;28;19929;-71
2022/10/31 04:17:13;;;;;;;;;;;9.60;99.90;;;;;;5044094;28;19978;-71
2022/10/31 04:19:40;;;;;;;;;;;9.50;99.90;;;;;;5052817;28;19935;-71
2022/10/31 04:22:07;;;;;;;;;;;9.40;99.90;;;;;;5048701;28;20020;-71
2022/10/31 04:24:33;;;;;;;;;;;9.50;99.90;;;;;;5047154;28;19925;-71
2022/10/31 04:27:00;;;;;;;;;;;9.40;99.90;;;;;;5042988;28;19935;-70
2022/10/31 04:29:28;;;;;;;;;;;9.30;99.90;;;;;;5042743;28;20004;-70
2022/10/31 04:31:55;;;;;;;;;;;9.20;99.90;;;;;;5046902;28;19931;-70
2022/10/31 04:34:21;;;;;;;;;;;9.10;99.90;;;;;;5044251;28;20312;-70
2022/10/31 04:36:48;;;;;;;;;;;9.10;99.90;;;;;;5047935;28;19933;-70
2022/10/31 04:39:15;;;;;;;;;;;9.20;99.90;;;;;;5041875;28;19924;-71
2022/10/31 04:41:41;;;;;;;;;;;9.20;99.90;;;;;;5042036;28;19929;-70
2022/10/31 04:44:08;;;;;;;;;;;9.10;99.90;;;;;;5042722;28;19931;-70
2022/10/31 04:46:36;;;;;;;;;;;9.10;99.90;;;;;;5043132;28;19931;-70
2022/10/31 04:49:02;;;;;;;;;;;9.20;99.90;;;;;;5041746;28;20376;-70
2022/10/31 04:51:29;;;;;;;;;;;9.20;99.90;;;;;;5042474;28;20388;-70
2022/10/31 04:53:56;;;;;;;;;;;9.20;99.90;;;;;;5039836;28;19924;-70
2022/10/31 04:56:22;;;;;;;;;;;9.30;99.90;;;;;;5048608;28;19924;-70
2022/10/31 04:58:49;;;;;;;;;;;9.30;99.90;;;;;;5040524;28;19972;-70
2022/10/31 05:01:16;;;;;;;;;;;9.30;99.90;;;;;;5042591;28;19939;-70
2022/10/31 05:03:44;;;;;;;;;;;9.40;99.90;;;;;;5043529;28;19939;-70
2022/10/31 05:06:10;;;;;;;;;;;9.30;99.90;;;;;;5044830;28;19933;-70
2022/10/31 05:08:37;;;;;;;;;;;9.30;99.90;;;;;;5048244;28;19967;-70
2022/10/31 05:11:04;;;;;;;;;;;9.30;99.90;;;;;;5042084;28;20353;-70
2022/10/31 05:13:31;;;;;;;;;;;9.40;99.90;;;;;;5041842;28;19925;-69
2022/10/31 05:15:58;;;;;;;;;;;9.50;99.90;;;;;;5045922;28;19975;-70
2022/10/31 05:18:25;;;;;;;;;;;9.60;99.90;;;;;;5047334;28;19931;-70
2022/10/31 05:20:53;;;;;;;;;;;9.60;99.90;;;;;;5041849;28;19928;-70
2022/10/31 05:23:19;;;;;;;;;;;9.60;99.90;;;;;;5041814;28;19970;-70
2022/10/31 05:25:46;;;;;;;;;;;9.80;99.90;;;;;;5040094;28;20355;-70
2022/10/31 05:28:13;;;;;;;;;;;9.80;99.90;;;;;;5038326;28;19924;-70
2022/10/31 05:30:39;;;;;;;;;;;9.80;99.90;;;;;;5042314;28;20398;-70
2022/10/31 05:33:06;;;;;;;;;;;9.80;99.90;;;;;;5042890;28;19932;-70
2022/10/31 05:35:33;;;;;;;;;;;9.90;99.90;;;;;;5040442;28;20394;-71
2022/10/31 05:38:01;;;;;;;;;;;9.90;99.90;;;;;;5042372;28;19925;-71
2022/10/31 05:40:28;;;;;;;;;;;9.80;99.90;;;;;;5047000;28;19933;-71
2022/10/31 05:42:56;;;;;;;;;;;9.90;99.90;;;;;;5041528;28;20023;-71
2022/10/31 05:45:23;;;;;;;;;;;9.80;99.90;;;;;;5042605;28;19925;-71
2022/10/31 05:47:53;;;;;;;;;;;9.70;99.90;;;;;;5044107;28;20002;-71
2022/10/31 05:50:20;;;;;;;;;;;9.70;99.90;;;;;;5044041;28;20315;-70
2022/10/31 05:52:47;;;;;;;;;;;9.70;99.90;;;;;;5040164;28;19954;-70
2022/10/31 05:55:15;;;;;;;;;;;9.70;99.90;;;;;;5049005;28;19932;-70
2022/10/31 05:57:41;;;;;;;;;;;9.70;99.90;;;;;;5048673;28;19931;-70
2022/10/31 06:00:09;;;;;;;;;;;9.70;99.90;;;;;;5044768;28;19925;-70
2022/10/31 06:02:35;;;;;;;;;;;9.80;99.90;;;;;;5040829;28;20368;-70
2022/10/31 06:05:02;;;;;;;;;;;9.80;99.90;;;;;;5041091;28;19940;-70
2022/10/31 06:07:32;;;;;;;;;;;9.90;99.90;;;;;;5041626;28;19928;-70
2022/10/31 06:09:59;;;;;;;;;;;9.90;99.90;;;;;;5040120;28;20680;-70
2022/10/31 06:12:27;;;;;;;;;;;10.00;99.90;;;;;;5046883;28;19947;-70
2022/10/31 06:14:54;;;;;;;;;;;10.00;99.90;;;;;;5046185;28;19930;-70
2022/10/31 06:17:20;;;;;;;;;;;10.00;99.90;;;;;;5043662;28;20011;-70
2022/10/31 06:19:47;;;;;;;;;;;10.10;99.90;;;;;;5043666;28;20004;-70
2022/10/31 06:22:13;;;;;;;;;;;10.10;99.90;;;;;;5040390;28;19931;-70
2022/10/31 06:24:40;;;;;;;;;;;10.10;99.90;;;;;;5042395;28;19932;-70
2022/10/31 06:27:07;;;;;;;;;;;10.10;99.90;;;;;;5043216;28;19964;-69
2022/10/31 06:29:35;;;;;;;;;;;10.10;99.90;;;;;;5044201;28;20015;-69
2022/10/31 06:32:01;;;;;;;;;;;10.20;99.90;;;;;;5042567;28;19925;-69
2022/10/31 06:34:28;;;;;;;;;;;10.40;99.90;;;;;;5049359;28;20012;-69
2022/10/31 06:36:55;;;;;;;;;;;10.50;99.90;;;;;;5046870;28;19925;-70
2022/10/31 06:39:21;;;;;;;;;;;10.50;99.90;;;;;;5051255;28;19925;-69
2022/10/31 06:41:48;;;;;;;;;;;10.50;99.90;;;;;;5044760;28;19933;-67
2022/10/31 06:44:15;;;;;;;;;;;10.50;99.90;;;;;;5045449;28;19925;-69
2022/10/31 06:46:43;;;;;;;;;;;10.40;99.90;;;;;;5048311;28;19933;-69
2022/10/31 06:49:09;;;;;;;;;;;10.40;99.90;;;;;;5045519;28;20014;-69
2022/10/31 06:51:36;;;;;;;;;;;10.30;99.90;;;;;;5048330;28;19925;-69
2022/10/31 06:54:02;;;;;;;;;;;10.30;99.90;;;;;;5044561;28;20367;-69
2022/10/31 06:56:29;;;;;;;;;;;10.30;99.90;;;;;;5046874;28;19925;-69
2022/10/31 06:58:56;;;;;;;;;;;10.40;99.90;;;;;;5045337;28;20016;-69
2022/10/31 07:01:23;;;;;;;;;;;10.40;99.90;;;;;;5044066;28;19951;-69
2022/10/31 07:03:50;;;;;;;;;;;10.40;99.90;;;;;;5055068;28;20004;-69
2022/10/31 07:06:17;;;;;;;;;;;10.40;99.90;;;;;;5051044;28;20306;-69
2022/10/31 07:08:44;;;;;;;;;;;10.50;99.90;;;;;;5053084;28;19925;-69
2022/10/31 07:11:10;;;;;;;;;;;10.60;99.90;;;;;;5059493;28;20031;-70
2022/10/31 07:13:37;;;;;;;;;;;10.70;99.90;;;;;;5040046;28;19925;-69
2022/10/31 07:16:06;;;;;;;;;;;10.80;99.90;;;;;;5052322;28;19931;-69
2022/10/31 07:18:33;;;;;;;;;;;10.80;99.90;;;;;;5053635;28;20313;-70
2022/10/31 07:21:01;;;;;;;;;;;10.80;99.90;;;;;;5062909;28;20024;-70
2022/10/31 07:23:28;;;;;;;;;;;10.80;99.90;;;;;;5051144;28;19924;-70
2022/10/31 07:25:55;;;;;;;;;;;10.90;99.90;;;;;;5052023;28;19968;-70
2022/10/31 07:28:22;;;;;;;;;;;10.90;99.90;;;;;;5051827;28;19932;-70
2022/10/31 07:30:50;;;;;;;;;;;10.90;99.90;;;;;;5052199;28;20020;-70
2022/10/31 07:33:17;;;;;;;;;;;11.00;99.90;;;;;;5055609;28;19929;-70
2022/10/31 07:35:44;;;;;;;;;;;11.10;99.90;;;;;;5064371;28;19931;-70
2022/10/31 07:38:12;;;;;;;;;;;11.20;99.90;;;;;;5046819;28;19932;-70
2022/10/31 07:40:39;;;;;;;;;;;11.30;99.90;;;;;;5047943;28;20454;-68
2022/10/31 07:43:05;;;;;;;;;;;11.50;99.90;;;;;;5050622;28;20607;-69
2022/10/31 07:45:32;;;;;;;;;;;11.60;99.90;;;;;;5050557;28;19928;-69
2022/10/31 07:47:59;;;;;;;;;;;11.70;99.90;;;;;;5042216;28;19932;-71
2022/10/31 07:50:26;;;;;;;;;;;11.80;99.90;;;;;;5041006;28;20031;-71
2022/10/31 07:53:00;;;;;;;;;;;11.90;99.90;;;;;;5045100;28;19925;-71
2022/10/31 07:55:28;;;;;;;;;;;11.90;99.90;;;;;;5042242;28;19928;-70
2022/10/31 07:57:59;;;;;;;;;;;11.90;99.90;;;;;;5042611;28;20034;-70
2022/10/31 08:00:26;;;;;;;;;;;11.90;99.90;;;;;;5041364;28;19925;-71
2022/10/31 08:03:00;;;;;;;;;;;11.80;99.90;;;;;;5043301;28;20019;-70
2022/10/31 08:05:26;;;;;;;;;;;11.80;99.90;;;;;;5046351;28;19931;-71
2022/10/31 08:07:53;;;;;;;;;;;11.90;99.90;;;;;;5044864;28;19931;-71
2022/10/31 08:10:20;;;;;;;;;;;11.90;99.90;;;;;;5047234;28;20007;-70
2022/10/31 08:12:48;;;;;;;;;;;11.90;99.90;;;;;;5047093;28;20015;-69
2022/10/31 08:15:15;;;;;;;;;;;11.90;99.90;;;;;;5047441;28;20004;-69
2022/10/31 08:17:42;;;;;;;;;;;11.90;99.90;;;;;;5044622;28;19925;-70
2022/10/31 08:20:09;;;;;;;;;;;12.00;99.90;;;;;;5042996;28;19933;-71
2022/10/31 08:22:36;;;;;;;;;;;12.00;99.90;;;;;;5046696;28;19925;-70
2022/10/31 08:25:02;;;;;;;;;;;12.10;99.90;;;;;;5036678;28;19948;-70
2022/10/31 08:27:29;;;;;;;;;;;12.10;99.90;;;;;;5044509;28;20027;-69
2022/10/31 08:29:58;;;;;;;;;;;12.20;99.90;;;;;;5044498;28;19932;-71
2022/10/31 08:32:24;;;;;;;;;;;12.20;99.90;;;;;;5041512;28;20395;-70
2022/10/31 08:34:51;;;;;;;;;;;12.20;99.90;;;;;;5042583;28;19983;-70
2022/10/31 08:37:19;;;;;;;;;;;12.20;99.90;;;;;;5044556;28;19933;-69
2022/10/31 08:39:46;;;;;;;;;;;12.30;99.90;;;;;;5048803;28;19925;-69
2022/10/31 08:42:13;;;;;;;;;;;12.30;99.90;;;;;;5045005;28;19933;-69
2022/10/31 08:44:39;;;;;;;;;;;12.30;99.90;;;;;;5048226;28;20402;-69
2022/10/31 08:47:08;;;;;;;;;;;12.40;99.90;;;;;;5043577;28;19968;-70
2022/10/31 08:49:34;;;;;;;;;;;12.50;99.90;;;;;;5051233;28;20406;-70
2022/10/31 08:52:01;;;;;;;;;;;12.50;99.90;;;;;;5051785;28;19925;-70
2022/10/31 08:54:28;;;;;;;;;;;12.60;99.90;;;;;;5045625;28;19924;-70
2022/10/31 08:56:55;;;;;;;;;;;12.60;99.90;;;;;;5047280;28;19968;-70
2022/10/31 08:59:21;;;;;;;;;;;12.60;99.90;;;;;;5046656;28;19940;-70
2022/10/31 09:01:48;;;;;;;;;;;12.60;99.90;;;;;;5041630;28;20361;-69
2022/10/31 09:04:16;;;;;;;;;;;12.70;99.90;;;;;;5045289;28;19971;-70
2022/10/31 09:06:43;;;;;;;;;;;12.70;99.90;;;;;;5046559;28;20008;-69
2022/10/31 09:09:10;;;;;;;;;;;12.80;99.90;;;;;;5048248;28;19931;-70
2022/10/31 09:11:37;;;;;;;;;;;12.80;99.90;;;;;;5042891;28;19928;-69
2022/10/31 09:14:04;;;;;;;;;;;12.80;99.90;;;;;;5045936;28;19972;-71
2022/10/31 09:16:30;;;;;;;;;;;13.00;99.90;;;;;;5048455;28;19925;-70
2022/10/31 09:18:57;;;;;;;;;;;13.10;99.90;;;;;;5046613;28;19931;-71
2022/10/31 09:21:25;;;;;;;;;;;13.20;99.90;;;;;;5037655;28;20000;-70
2022/10/31 09:23:53;;;;;;;;;;;13.20;99.90;;;;;;5042142;28;19924;-70
2022/10/31 09:26:20;;;;;;;;;;;13.20;99.90;;;;;;5046215;28;19924;-69
2022/10/31 09:28:47;;;;;;;;;;;13.20;99.90;;;;;;5055298;28;19990;-71
2022/10/31 09:31:14;;;;;;;;;;;13.20;99.90;;;;;;5037202;28;20019;-70
2022/10/31 09:33:41;;;;;;;;;;;13.10;99.90;;;;;;5050148;28;19943;-70
2022/10/31 09:36:08;;;;;;;;;;;13.10;99.90;;;;;;5052599;28;19924;-70
2022/10/31 09:38:36;;;;;;;;;;;13.10;99.90;;;;;;5048456;28;19924;-69
2022/10/31 09:41:08;;;;;;;;;;;13.00;99.90;;;;;;5041320;28;19935;-70
2022/10/31 09:43:40;;;;;;;;;;;13.00;99.90;;;;;;5041230;28;19931;-70
2022/10/31 09:46:10;;;;;;;;;;;13.10;99.90;;;;;;5044982;28;19932;-70
2022/10/31 09:48:52;;;;;;;;;;;13.00;99.90;;;;;;5049008;28;20015;-69
2022/10/31 09:51:20;;;;;;;;;;;13.00;99.90;;;;;;5045684;28;19924;-70
2022/10/31 09:53:50;;;;;;;;;;;13.00;99.90;;;;;;5043380;28;20447;-69
2022/10/31 09:56:18;;;;;;;;;;;13.10;99.90;;;;;;5047134;28;19933;-71
2022/10/31 09:58:46;;;;;;;;;;;13.10;99.90;;;;;;5047234;28;20298;-71
2022/10/31 10:01:24;;;;;;;;;;;13.30;99.90;;;;;;5047715;28;20429;-71
2022/10/31 10:03:53;;;;;;;;;;;13.40;99.90;;;;;;5049029;28;19940;-71
2022/10/31 10:06:24;;;;;;;;;;;13.50;99.90;;;;;;5047027;28;19924;-72
2022/10/31 10:08:52;;;;;;;;;;;13.60;99.90;;;;;;5048714;28;20289;-69
2022/10/31 10:11:28;;;;;;;;;;;13.60;99.90;;;;;;5045728;28;19971;-70
2022/10/31 10:14:02;;;;;;;;;;;13.50;99.90;;;;;;5053546;28;19925;-71
2022/10/31 10:16:36;;;;;;;;;;;13.50;99.90;;;;;;5051291;28;19925;-70
2022/10/31 10:19:11;;;;;;;;;;;13.60;99.90;;;;;;5046409;28;19965;-72
2022/10/31 10:21:44;;;;;;;;;;;13.60;99.90;;;;;;5049527;28;20008;-71
2022/10/31 10:24:18;;;;;;;;;;;13.60;99.90;;;;;;5049923;28;19925;-71
2022/10/31 10:26:51;;;;;;;;;;;13.70;99.90;;;;;;5044550;28;19995;-72
2022/10/31 10:29:24;;;;;;;;;;;13.80;99.90;;;;;;5044674;28;19925;-70
2022/10/31 10:31:53;;;;;;;;;;;13.80;99.90;;;;;;5044623;28;19925;-73
2022/10/31 10:34:23;;;;;;;;;;;13.80;99.90;;;;;;5052265;28;19955;-71
2022/10/31 10:36:53;;;;;;;;;;;13.90;99.90;;;;;;5042903;28;20305;-71
2022/10/31 10:39:23;;;;;;;;;;;14.00;99.90;;;;;;5039464;28;19925;-71
2022/10/31 10:50:00;;;;;;;;;;;14.30;99.90;;;;;;5050237;28;20337;-75
2022/10/31 10:52:30;;;;;;;;;;;14.30;99.90;;;;;;5045509;28;20653;-73
2022/10/31 10:55:03;;;;;;;;;;;14.30;99.90;;;;;;5044352;28;20033;-75
2022/10/31 10:57:42;;;;;;;;;;;14.50;99.90;;;;;;5047970;28;19929;-74
2022/10/31 11:00:17;;;;;;;;;;;14.50;99.90;;;;;;5044085;28;20405;-73
2022/10/31 11:02:44;;;;;;;;;;;14.40;99.90;;;;;;5045825;28;19925;-74
2022/10/31 11:05:15;;;;;;;;;;;14.40;99.90;;;;;;5045643;28;20396;-73
2022/10/31 11:07:42;;;;;;;;;;;14.20;99.90;;;;;;5048011;28;19933;-74
2022/10/31 11:10:14;;;;;;;;;;;14.30;99.90;;;;;;5043915;28;20367;-73
2022/10/31 11:12:41;;;;;;;;;;;14.30;99.90;;;;;;5041868;28;19925;-73
2022/10/31 11:15:17;;;;;;;;;;;14.50;99.90;;;;;;5048596;28;20008;-73
2022/10/31 11:17:48;;;;;;;;;;;14.50;99.90;;;;;;5050547;28;20004;-73
2022/10/31 11:20:25;;;;;;;;;;;14.60;99.90;;;;;;5047733;28;19948;-73
2022/10/31 11:23:01;;;;;;;;;;;14.60;99.90;;;;;;5044841;28;20016;-74
2022/10/31 11:25:29;;;;;;;;;;;14.80;99.90;;;;;;5044707;28;20011;-73
2022/10/31 11:28:02;;;;;;;;;;;14.80;99.90;;;;;;5048091;28;19980;-73
2022/10/31 11:30:29;;;;;;;;;;;14.90;99.90;;;;;;5050967;28;20007;-74
2022/10/31 11:32:56;;;;;;;;;;;14.80;99.90;;;;;;5047676;28;20641;-73
2022/10/31 11:35:25;;;;;;;;;;;14.90;99.90;;;;;;5048042;28;19964;-73
2022/10/31 11:37:53;;;;;;;;;;;14.90;99.90;;;;;;5050502;28;20020;-74
2022/10/31 11:40:21;;;;;;;;;;;14.90;99.90;;;;;;5046759;28;20291;-74
2022/10/31 11:42:50;;;;;;;;;;;15.00;99.90;;;;;;5046695;28;19925;-74
2022/10/31 11:45:17;;;;;;;;;;;15.00;99.90;;;;;;5051146;28;19928;-73
2022/10/31 11:47:45;;;;;;;;;;;15.20;99.90;;;;;;5049811;28;20419;-72
2022/10/31 11:50:18;;;;;;;;;;;15.20;99.90;;;;;;5051624;28;19968;-72
2022/10/31 11:52:45;;;;;;;;;;;15.20;99.90;;;;;;5050081;28;19946;-73
2022/10/31 11:55:16;;;;;;;;;;;15.40;99.90;;;;;;5051416;28;20032;-72
2022/10/31 11:57:44;;;;;;;;;;;15.40;99.90;;;;;;5050614;28;19925;-73
2022/10/31 12:00:21;;;;;;;;;;;15.50;99.90;;;;;;5052130;28;19924;-74
2022/10/31 12:02:47;;;;;;;;;;;15.50;99.90;;;;;;5051534;28;19931;-73
2022/10/31 12:05:19;;;;;;;;;;;15.50;99.90;;;;;;5052926;28;19956;-73
2022/10/31 12:07:46;;;;;;;;;;;15.60;99.90;;;;;;5051846;28;19932;-74
2022/10/31 12:10:13;;;;;;;;;;;15.70;99.90;;;;;;5038133;28;20329;-74
2022/10/31 12:12:46;;;;;;;;;;;15.80;99.90;;;;;;5044876;28;19925;-74
2022/10/31 12:15:25;;;;;;;;;;;15.80;99.90;;;;;;5046216;28;19956;-73
2022/10/31 12:17:56;;;;;;;;;;;15.80;99.90;;;;;;5051253;28;20147;-73
2022/10/31 12:20:27;;;;;;;;;;;16.00;99.90;;;;;;5052083;28;19931;-73
2022/10/31 12:22:58;;;;;;;;;;;16.00;99.90;;;;;;5050732;28;20028;-74
2022/10/31 12:25:31;;;;;;;;;;;16.00;99.90;;;;;;5043194;28;19931;-74
2022/10/31 12:28:18;;;;;;;;;;;16.20;99.90;;;;;;5034488;28;20122;-73
2022/10/31 12:30:54;;;;;;;;;;;16.30;99.90;;;;;;5021915;28;20300;-73
2022/10/31 12:33:27;;;;;;;;;;;16.40;99.90;;;;;;5050986;28;20423;-74
2022/10/31 12:35:59;;;;;;;;;;;16.40;99.90;;;;;;5049070;28;19940;-73
2022/10/31 12:38:34;;;;;;;;;;;16.40;99.90;;;;;;5047187;28;20011;-74
2022/10/31 12:41:19;;;;;;;;;;;16.40;99.90;;;;;;5047364;28;19976;-73
2022/10/31 12:43:47;;;;;;;;;;;16.50;99.90;;;;;;5037322;28;20272;-74
2022/10/31 12:46:18;;;;;;;;;;;16.60;99.90;;;;;;5035484;28;20377;-73
2022/10/31 12:48:56;;;;;;;;;;;16.70;99.90;;;;;;5036632;28;19925;-73
2022/10/31 12:51:28;;;;;;;;;;;17.00;99.90;;;;;;5049466;28;19925;-72
2022/10/31 12:54:00;;;;;;;;;;;17.20;99.90;;;;;;5041961;28;20015;-74
2022/10/31 12:56:33;;;;;;;;;;;17.30;99.90;;;;;;5048613;28;20475;-80
2022/10/31 12:59:02;;;;;;;;;;;17.50;99.90;;;;;;5048428;28;20327;-73
2022/10/31 13:01:33;;;;;;;;;;;17.50;99.90;;;;;;5046221;28;20029;-73
2022/10/31 13:04:04;;;;;;;;;;;17.40;99.90;;;;;;5045946;28;20002;-73
2022/10/31 13:06:34;;;;;;;;;;;17.40;99.90;;;;;;5048177;28;20225;-73
2022/10/31 13:09:01;;;;;;;;;;;17.30;99.90;;;;;;5040516;28;20012;-74
2022/10/31 13:11:30;;;;;;;;;;;17.30;99.90;;;;;;5050043;28;19924;-71
2022/10/31 13:13:59;;;;;;;;;;;17.50;99.90;;;;;;5042800;28;20035;-73
2022/10/31 13:16:27;;;;;;;;;;;17.60;99.90;;;;;;5034577;28;19968;-73
2022/10/31 13:18:57;;;;;;;;;;;17.60;99.90;;;;;;5038828;28;19925;-73
2022/10/31 13:21:26;;;;;;;;;;;17.60;99.90;;;;;;5050514;28;19924;-74
2022/10/31 13:23:53;;;;;;;;;;;17.70;99.90;;;;;;5050324;28;20003;-74
2022/10/31 13:26:23;;;;;;;;;;;17.80;99.90;;;;;;5050689;28;19925;-74
2022/10/31 13:28:51;;;;;;;;;;;17.80;99.90;;;;;;5047062;28;19933;-74
2022/10/31 13:31:17;;;;;;;;;;;17.90;99.90;;;;;;5050502;28;20011;-73
2022/10/31 13:33:47;;;;;;;;;;;18.00;99.90;;;;;;5052313;28;19982;-74
2022/10/31 13:36:22;;;;;;;;;;;17.90;99.90;;;;;;5049832;28;19972;-74
2022/10/31 13:38:51;;;;;;;;;;;17.80;99.90;;;;;;5053108;28;20019;-73
2022/10/31 13:41:23;;;;;;;;;;;17.80;99.90;;;;;;5036231;28;19926;-71
2022/10/31 13:43:59;;;;;;;;;;;17.80;99.90;;;;;;5035524;28;20303;-75
2022/10/31 13:46:35;;;;;;;;;;;17.80;99.90;;;;;;5035964;28;19935;-72
2022/10/31 13:49:01;;;;;;;;;;;17.80;99.90;;;;;;5037331;28;19925;-73
2022/10/31 13:51:30;;;;;;;;;;;17.80;99.90;;;;;;5046381;28;20019;-73
2022/10/31 13:53:58;;;;;;;;;;;17.80;99.90;;;;;;5050786;28;19931;-73
2022/10/31 13:56:26;;;;;;;;;;;17.80;99.90;;;;;;5045902;28;20546;-73
2022/10/31 13:58:59;;;;;;;;;;;17.80;99.90;;;;;;5046579;28;20039;-72
2022/10/31 14:01:28;;;;;;;;;;;17.80;99.90;;;;;;5053159;28;20011;-73
2022/10/31 14:04:00;;;;;;;;;;;17.80;99.90;;;;;;5053997;28;19925;-74
2022/10/31 14:06:43;;;;;;;;;;;17.90;99.90;;;;;;5039520;28;20367;-75
2022/10/31 14:09:21;;;;;;;;;;;17.90;99.90;;;;;;5045201;28;19964;-73
2022/10/31 14:11:49;;;;;;;;;;;17.80;99.90;;;;;;5039518;28;19931;-77
2022/10/31 14:14:16;;;;;;;;;;;17.80;99.90;;;;;;5035432;28;19987;-73
2022/10/31 14:16:44;;;;;;;;;;;17.70;99.90;;;;;;5035037;28;19929;-73
2022/10/31 14:19:16;;;;;;;;;;;17.70;99.90;;;;;;5037492;28;19932;-74
2022/10/31 14:21:45;;;;;;;;;;;17.70;99.90;;;;;;5035055;28;19971;-72
2022/10/31 14:24:15;;;;;;;;;;;17.70;99.90;;;;;;5037048;28;20015;-73
2022/10/31 14:26:51;;;;;;;;;;;17.70;99.90;;;;;;5046067;28;19931;-73
2022/10/31 14:29:24;;;;;;;;;;;17.80;99.90;;;;;;5053444;28;20005;-73
2022/10/31 14:31:55;;;;;;;;;;;17.70;99.90;;;;;;5053655;28;20321;-72
2022/10/31 14:34:24;;;;;;;;;;;17.70;99.90;;;;;;5054663;28;20032;-73
2022/10/31 14:37:02;;;;;;;;;;;17.70;99.90;;;;;;5054825;28;19987;-73